Pagina principale
METAR-TAF:

METAR-TAF

Aeroporti :

Aeroporto di Nizza Costa Azzurra

Nizza, Francia

latitudine: 43-39N, longitudine: 007-12E, altezza: 4 m

Osservazione

Il bollettino è stato emesso 18 minuti fa, alle 17:30 UTC
Vento 4 kt da sud/sud-est
Temperature 20°C
Umidità 68%
Pressione 1015 hPa
Visibilità 10 km o più
nessuna nube inferiore a 1500 m e nessun cumulonembo

METAR: LFMN 311730Z AUTO 15004KT CAVOK 20/14 Q1015 NOSIG

Ora: 19:48 (17:48 UTC)

Previsione

Il bollettino è stato emesso 3 ore e 48 minuti fa, alle 14:00 UTC
Previsione valida dal 31 alle 15 UTC al 01 alle 21 UTC
Vento 6 kt da sud-est
Visibilità 10 km o più
nessuna nube inferiore a 1500 m e nessun cumulonembo
Temporaneamente
dal 31 alle 21 UTC al 01 alle 06 UTC
Vento 10 kt da nord/nord-ovest

TAF: LFMN 311400Z 3115/0121 13006KT CAVOK TEMPO 3121/0106 33010KT

Osservazioni e previsioni meteorologiche di più di 4000 aeroporti (messaggi METAR e TAF).

Le stazioni disponibili sono rappresentate dai dischi gialli e rossi sulla carta.

Puntare il mouse per vedere il nome della stazione.

Clicca sopra per visualizzare le osservazioni e previsioni meteorologiche.

Per cambiare la mappa : fare clic sui pulsanti verdi con una croce nera per ingrandire, il pulsante verde con un trattino per diminuire, o sulla freccia verde per le mappe adiacenti.


METAR-TAF: